Time;durP1;ratioP1;P1;durP2;ratioP2;P2;SDS_P1;SDS_P2;PMS_P1;PMS_P2;Temp;Humidity;BMP_temperature;BMP_pressure;BME280_temperature;BME280_humidity;BME280_pressure;Samples;Min_cycle;Max_cycle;Signal;HPM_P1;HPM_P2
2023/08/14 00:01:35;;;;;;;3.53;1.40;;;;;;;;;;8267497;28;21878;-59
2023/08/14 00:05:35;;;;;;;4.47;1.50;;;;;;;;;;8266289;28;20029;-60
2023/08/14 00:09:36;;;;;;;2.10;1.40;;;;;;;;;;8263705;28;20033;-59
2023/08/14 00:13:49;;;;;;;2.73;1.50;;;;;;;;;;8264455;28;20180;-59
2023/08/14 00:17:50;;;;;;;4.30;1.50;;;;;;;;;;8264871;28;20135;-59
2023/08/14 00:21:51;;;;;;;4.18;1.30;;;;;;;;;;8265637;28;20097;-59
2023/08/14 00:25:51;;;;;;;2.40;1.50;;;;;;;;;;8265283;28;20375;-59
2023/08/14 00:29:51;;;;;;;2.10;1.40;;;;;;;;;;8265086;28;20153;-59
2023/08/14 00:33:52;;;;;;;8.07;1.80;;;;;;;;;;8259826;28;20037;-59
2023/08/14 00:37:52;;;;;;;4.78;1.40;;;;;;;;;;8264009;28;20029;-59
2023/08/14 00:41:52;;;;;;;3.42;1.45;;;;;;;;;;8265328;28;20398;-60
2023/08/14 00:45:54;;;;;;;2.72;1.30;;;;;;;;;;8264736;28;20052;-59
2023/08/14 00:49:54;;;;;;;4.10;1.33;;;;;;;;;;8261046;28;20175;-59
2023/08/14 00:53:54;;;;;;;7.90;1.42;;;;;;;;;;8263176;28;20064;-59
2023/08/14 00:57:55;;;;;;;2.55;1.33;;;;;;;;;;8262882;28;20152;-59
2023/08/14 01:01:56;;;;;;;6.60;1.90;;;;;;;;;;8264098;28;20038;-60
2023/08/14 01:05:57;;;;;;;2.77;1.40;;;;;;;;;;8262355;28;20229;-60
2023/08/14 01:09:57;;;;;;;6.93;1.50;;;;;;;;;;8263306;28;20022;-59
2023/08/14 01:14:13;;;;;;;3.03;1.48;;;;;;;;;;8262266;28;21021;-59
2023/08/14 01:18:15;;;;;;;4.20;1.55;;;;;;;;;;8267431;28;20990;-59
2023/08/14 01:22:29;;;;;;;3.07;1.50;;;;;;;;;;8263715;28;20026;-60
2023/08/14 01:26:29;;;;;;;;;;;;;;;;;;8269614;28;20079;-59
2023/08/14 01:30:29;;;;;;;3.63;1.35;;;;;;;;;;8263260;28;19921;-59
2023/08/14 01:34:30;;;;;;;4.10;1.50;;;;;;;;;;8265610;28;20680;-59
2023/08/14 01:38:44;;;;;;;3.60;1.20;;;;;;;;;;8265086;28;20729;-59
2023/08/14 01:42:47;;;;;;;4.45;1.70;;;;;;;;;;8266042;28;20026;-59
2023/08/14 01:46:48;;;;;;;3.22;1.48;;;;;;;;;;8266345;28;20773;-59
2023/08/14 01:50:52;;;;;;;4.07;1.52;;;;;;;;;;8271911;28;20134;-59
2023/08/14 01:54:52;;;;;;;2.42;1.52;;;;;;;;;;8269194;28;20900;-59
2023/08/14 01:58:53;;;;;;;3.03;1.42;;;;;;;;;;8271215;28;20087;-59
2023/08/14 02:02:53;;;;;;;4.90;1.50;;;;;;;;;;8271577;28;20465;-59
2023/08/14 02:06:53;;;;;;;2.87;1.30;;;;;;;;;;8271759;28;20113;-59
2023/08/14 02:10:54;;;;;;;3.50;1.33;;;;;;;;;;8269948;28;20096;-59
2023/08/14 02:14:54;;;;;;;3.50;1.55;;;;;;;;;;8270025;28;20029;-59
2023/08/14 02:18:54;;;;;;;5.47;1.40;;;;;;;;;;8266189;28;20042;-59
2023/08/14 02:22:54;;;;;;;3.80;1.58;;;;;;;;;;8269873;28;20292;-59
2023/08/14 02:26:55;;;;;;;1.80;1.20;;;;;;;;;;8269801;28;20955;-59
2023/08/14 02:30:55;;;;;;;3.80;1.60;;;;;;;;;;8265695;28;20041;-60
2023/08/14 02:34:58;;;;;;;2.28;1.40;;;;;;;;;;8270191;28;20824;-59
2023/08/14 02:38:58;;;;;;;3.35;1.50;;;;;;;;;;8267339;28;20037;-59
2023/08/14 02:42:59;;;;;;;3.17;1.50;;;;;;;;;;8273095;28;20033;-59
2023/08/14 02:46:59;;;;;;;5.38;1.60;;;;;;;;;;8264699;28;20042;-59
2023/08/14 02:51:00;;;;;;;2.10;1.30;;;;;;;;;;8270017;28;20010;-59
2023/08/14 02:55:00;;;;;;;3.38;1.40;;;;;;;;;;8269152;28;20021;-59
2023/08/14 02:59:00;;;;;;;2.88;1.50;;;;;;;;;;8265973;28;20032;-59
2023/08/14 03:03:02;;;;;;;4.10;1.50;;;;;;;;;;8267470;28;20065;-60
2023/08/14 03:07:02;;;;;;;2.63;1.50;;;;;;;;;;8269649;28;20033;-60
2023/08/14 03:11:03;;;;;;;2.78;1.27;;;;;;;;;;8266150;28;20113;-59
2023/08/14 03:15:04;;;;;;;3.28;1.58;;;;;;;;;;8270349;28;20025;-61
2023/08/14 03:19:04;;;;;;;4.45;1.52;;;;;;;;;;8267850;28;20113;-59
2023/08/14 03:23:04;;;;;;;5.13;1.90;;;;;;;;;;8263665;28;20139;-59
2023/08/14 03:27:05;;;;;;;4.70;1.60;;;;;;;;;;8267638;28;20731;-59
2023/08/14 03:31:05;;;;;;;3.23;1.40;;;;;;;;;;8268247;28;20045;-59
2023/08/14 03:35:05;;;;;;;2.65;1.60;;;;;;;;;;8267302;28;20041;-59
2023/08/14 03:39:05;;;;;;;4.50;1.40;;;;;;;;;;8266894;28;20034;-59
2023/08/14 03:43:06;;;;;;;1.98;1.38;;;;;;;;;;8269809;28;20029;-59
2023/08/14 03:47:06;;;;;;;2.83;1.40;;;;;;;;;;8265407;28;20038;-59
2023/08/14 03:51:06;;;;;;;3.78;1.45;;;;;;;;;;8264979;28;20029;-59
2023/08/14 03:55:07;;;;;;;5.25;2.03;;;;;;;;;;8264858;28;20812;-59
2023/08/14 03:59:07;;;;;;;8.27;1.40;;;;;;;;;;8267665;28;20021;-59
2023/08/14 04:03:07;;;;;;;2.73;1.30;;;;;;;;;;8268248;28;20111;-59
2023/08/14 04:07:07;;;;;;;2.95;1.58;;;;;;;;;;8264032;28;21086;-59
2023/08/14 04:11:09;;;;;;;2.70;1.20;;;;;;;;;;8266379;28;20045;-59
2023/08/14 04:15:13;;;;;;;2.25;1.45;;;;;;;;;;8268092;28;20021;-59
2023/08/14 04:19:14;;;;;;;3.05;1.30;;;;;;;;;;8263485;28;20433;-59
2023/08/14 04:23:15;;;;;;;2.63;1.20;;;;;;;;;;8262862;28;20025;-60
2023/08/14 04:27:15;;;;;;;4.80;1.60;;;;;;;;;;8263293;28;20798;-59
2023/08/14 04:31:15;;;;;;;2.03;1.35;;;;;;;;;;8264025;28;20100;-59
2023/08/14 04:35:15;;;;;;;5.47;1.35;;;;;;;;;;8269179;28;20033;-60
2023/08/14 04:39:16;;;;;;;2.65;1.40;;;;;;;;;;8264252;28;20021;-59
2023/08/14 04:43:16;;;;;;;5.33;1.40;;;;;;;;;;8266670;28;20044;-59
2023/08/14 04:47:16;;;;;;;1.65;1.15;;;;;;;;;;8264355;28;20321;-59
2023/08/14 04:51:16;;;;;;;3.97;1.50;;;;;;;;;;8265394;28;20032;-59
2023/08/14 04:55:17;;;;;;;1.60;1.30;;;;;;;;;;8265177;28;20022;-59
2023/08/14 04:59:17;;;;;;;2.58;1.58;;;;;;;;;;8264415;28;20045;-59
2023/08/14 05:03:17;;;;;;;3.67;1.48;;;;;;;;;;8262511;28;20041;-59
2023/08/14 05:07:17;;;;;;;3.15;1.33;;;;;;;;;;8263583;28;20144;-59
2023/08/14 05:11:17;;;;;;;2.70;1.60;;;;;;;;;;8265122;28;20091;-59
2023/08/14 05:15:18;;;;;;;2.83;1.50;;;;;;;;;;8263323;28;20187;-59
2023/08/14 05:19:18;;;;;;;3.13;1.42;;;;;;;;;;8264965;28;20030;-59
2023/08/14 05:23:18;;;;;;;4.28;1.70;;;;;;;;;;8270926;28;20029;-59
2023/08/14 05:27:18;;;;;;;7.60;1.90;;;;;;;;;;8273908;28;20172;-59
2023/08/14 05:31:18;;;;;;;3.08;1.70;;;;;;;;;;8272923;28;20030;-59
2023/08/14 05:35:23;;;;;;;4.20;1.95;;;;;;;;;;8268989;28;20129;-59
2023/08/14 05:39:23;;;;;;;2.47;1.40;;;;;;;;;;8269026;28;20033;-60
2023/08/14 05:43:23;;;;;;;6.33;1.60;;;;;;;;;;8272887;28;20021;-59
2023/08/14 05:47:24;;;;;;;3.45;1.52;;;;;;;;;;8272132;28;20042;-59
2023/08/14 05:51:24;;;;;;;6.85;1.90;;;;;;;;;;8270681;28;20029;-59
2023/08/14 05:55:25;;;;;;;7.73;1.77;;;;;;;;;;8267990;28;20120;-59
2023/08/14 05:59:25;;;;;;;4.10;1.50;;;;;;;;;;8269722;28;20155;-59
2023/08/14 06:03:25;;;;;;;5.43;1.60;;;;;;;;;;8271687;28;20087;-60
2023/08/14 06:07:25;;;;;;;4.13;1.70;;;;;;;;;;8264663;28;20363;-59
2023/08/14 06:11:26;;;;;;;2.67;1.40;;;;;;;;;;8271399;28;20180;-59
2023/08/14 06:15:26;;;;;;;3.33;1.60;;;;;;;;;;8270704;28;20044;-59
2023/08/14 06:19:26;;;;;;;2.88;1.30;;;;;;;;;;8271015;28;20037;-60
2023/08/14 06:23:27;;;;;;;4.95;1.70;;;;;;;;;;8269255;28;20382;-60
2023/08/14 06:27:27;;;;;;;2.90;1.67;;;;;;;;;;8270484;28;20071;-60
2023/08/14 06:31:27;;;;;;;3.93;1.70;;;;;;;;;;8266703;28;20074;-59
2023/08/14 06:35:27;;;;;;;5.68;1.58;;;;;;;;;;8269243;28;20018;-60
2023/08/14 06:39:28;;;;;;;3.97;1.55;;;;;;;;;;8267727;28;20030;-59
2023/08/14 06:43:28;;;;;;;4.60;1.70;;;;;;;;;;8266704;28;20033;-60
2023/08/14 06:47:28;;;;;;;3.65;1.40;;;;;;;;;;8268214;28;20053;-60
2023/08/14 06:51:28;;;;;;;4.85;1.77;;;;;;;;;;8266527;28;20104;-60
2023/08/14 06:55:29;;;;;;;3.87;1.47;;;;;;;;;;8267695;28;20025;-60
2023/08/14 06:59:29;;;;;;;2.97;1.50;;;;;;;;;;8268056;28;20017;-61
2023/08/14 07:03:30;;;;;;;3.65;1.60;;;;;;;;;;8265761;28;20043;-61
2023/08/14 07:07:30;;;;;;;5.30;1.73;;;;;;;;;;8266749;28;20754;-60
2023/08/14 07:11:38;;;;;;;3.13;1.50;;;;;;;;;;8265018;28;20112;-61
2023/08/14 07:15:38;;;;;;;2.30;1.63;;;;;;;;;;8268803;28;20038;-61
2023/08/14 07:19:38;;;;;;;7.25;1.70;;;;;;;;;;8266998;28;20466;-60
2023/08/14 07:23:38;;;;;;;5.47;1.60;;;;;;;;;;8265610;28;20040;-60
2023/08/14 07:27:39;;;;;;;4.72;1.70;;;;;;;;;;8267235;28;20030;-61
2023/08/14 07:31:39;;;;;;;1.93;1.43;;;;;;;;;;8268345;28;20111;-60
2023/08/14 07:35:39;;;;;;;3.10;1.63;;;;;;;;;;8265925;28;20030;-61
2023/08/14 07:39:39;;;;;;;4.23;1.80;;;;;;;;;;8263759;28;20037;-60
2023/08/14 07:43:40;;;;;;;4.60;1.37;;;;;;;;;;8266374;28;20172;-61
2023/08/14 07:47:40;;;;;;;3.40;1.40;;;;;;;;;;8262726;28;20149;-61
2023/08/14 07:51:40;;;;;;;4.00;1.57;;;;;;;;;;8266517;28;20649;-61
2023/08/14 07:55:41;;;;;;;3.00;1.50;;;;;;;;;;8267511;28;20627;-61
2023/08/14 07:59:41;;;;;;;2.42;1.55;;;;;;;;;;8264165;28;20044;-61
2023/08/14 08:03:42;;;;;;;3.22;1.55;;;;;;;;;;8263071;28;20054;-61
2023/08/14 08:07:42;;;;;;;2.67;1.67;;;;;;;;;;8263103;28;20040;-60
2023/08/14 08:11:42;;;;;;;5.80;1.57;;;;;;;;;;8265332;28;20045;-61
2023/08/14 08:15:43;;;;;;;4.23;1.80;;;;;;;;;;8267972;28;20042;-59
2023/08/14 08:19:44;;;;;;;2.58;1.52;;;;;;;;;;8263599;28;20419;-60
2023/08/14 08:23:44;;;;;;;4.65;2.75;;;;;;;;;;8268487;28;20045;-59
2023/08/14 08:27:44;;;;;;;3.80;2.63;;;;;;;;;;8268883;28;20136;-61
2023/08/14 08:31:44;;;;;;;3.50;1.73;;;;;;;;;;8267659;28;20045;-60
2023/08/14 08:35:44;;;;;;;2.80;1.58;;;;;;;;;;8264932;28;20030;-60
2023/08/14 08:39:45;;;;;;;2.43;1.63;;;;;;;;;;8262454;28;20122;-61
2023/08/14 08:43:45;;;;;;;3.95;1.83;;;;;;;;;;8266401;28;20034;-61
2023/08/14 08:47:48;;;;;;;4.25;1.77;;;;;;;;;;8266203;28;20315;-60
2023/08/14 08:51:48;;;;;;;6.72;1.70;;;;;;;;;;8267919;28;20079;-60
2023/08/14 08:55:49;;;;;;;3.45;1.85;;;;;;;;;;8263210;28;20375;-61
2023/08/14 08:59:50;;;;;;;4.65;1.92;;;;;;;;;;8264117;28;20029;-60
2023/08/14 09:03:50;;;;;;;6.70;2.08;;;;;;;;;;8264588;28;20045;-60
2023/08/14 09:07:50;;;;;;;3.47;1.80;;;;;;;;;;8264258;28;20030;-61
2023/08/14 09:11:50;;;;;;;4.80;1.77;;;;;;;;;;8264143;28;20036;-60
2023/08/14 09:15:51;;;;;;;2.75;1.90;;;;;;;;;;8259738;28;20076;-61
2023/08/14 09:19:51;;;;;;;2.92;1.90;;;;;;;;;;8259951;28;20033;-60
2023/08/14 09:23:52;;;;;;;4.05;1.42;;;;;;;;;;8262623;28;20033;-60
2023/08/14 09:27:55;;;;;;;3.30;1.90;;;;;;;;;;8262397;28;20048;-61
2023/08/14 09:31:57;;;;;;;2.55;1.70;;;;;;;;;;8263404;28;20040;-60
2023/08/14 09:35:58;;;;;;;3.63;1.85;;;;;;;;;;8259690;28;20517;-60
2023/08/14 09:40:17;;;;;;;2.42;1.63;;;;;;;;;;8261560;28;20033;-61
2023/08/14 09:44:20;;;;;;;6.25;1.90;;;;;;;;;;8265715;28;20033;-61
2023/08/14 09:48:21;;;;;;;4.32;1.90;;;;;;;;;;8261685;28;20041;-60
2023/08/14 09:52:23;;;;;;;5.22;1.90;;;;;;;;;;8264936;28;20132;-60
2023/08/14 09:56:24;;;;;;;4.25;2.00;;;;;;;;;;8260553;28;20030;-60
2023/08/14 10:00:29;;;;;;;2.95;1.60;;;;;;;;;;8251798;28;20034;-61
2023/08/14 10:04:30;;;;;;;2.20;1.45;;;;;;;;;;8265920;28;20030;-61
2023/08/14 10:08:34;;;;;;;2.95;1.52;;;;;;;;;;8263647;28;20052;-61
2023/08/14 10:12:41;;;;;;;2.25;1.40;;;;;;;;;;8271028;28;20026;-61
2023/08/14 10:16:42;;;;;;;3.45;1.70;;;;;;;;;;8272060;28;20042;-61
2023/08/14 10:20:44;;;;;;;2.20;1.40;;;;;;;;;;8270875;28;20014;-61
2023/08/14 10:24:45;;;;;;;3.90;1.50;;;;;;;;;;8269853;28;20026;-61
2023/08/14 10:28:45;;;;;;;2.70;1.70;;;;;;;;;;8270961;28;20658;-61
2023/08/14 10:32:46;;;;;;;1.60;1.40;;;;;;;;;;8273735;28;20025;-61
2023/08/14 10:36:49;;;;;;;1.95;1.42;;;;;;;;;;8271070;28;20079;-61
2023/08/14 10:41:04;;;;;;;5.20;1.60;;;;;;;;;;8269043;28;20018;-61
2023/08/14 10:45:05;;;;;;;6.60;1.65;;;;;;;;;;8270745;28;20651;-62
2023/08/14 10:49:05;;;;;;;13.63;1.90;;;;;;;;;;8269107;28;20022;-61
2023/08/14 10:53:06;;;;;;;4.15;1.67;;;;;;;;;;8271306;28;20682;-61
2023/08/14 10:57:09;;;;;;;2.55;1.42;;;;;;;;;;8267919;28;20064;-61
2023/08/14 11:01:10;;;;;;;2.00;1.50;;;;;;;;;;8268514;28;20045;-61
2023/08/14 11:05:12;;;;;;;4.40;1.67;;;;;;;;;;8269664;28;20021;-61
2023/08/14 11:09:14;;;;;;;2.22;1.80;;;;;;;;;;8269559;28;20025;-61
2023/08/14 11:13:14;;;;;;;5.80;1.80;;;;;;;;;;8269818;28;20090;-61
2023/08/14 11:17:15;;;;;;;2.72;1.75;;;;;;;;;;8267671;28;20144;-61
2023/08/14 11:21:15;;;;;;;3.08;1.80;;;;;;;;;;8269660;28;20113;-61
2023/08/14 11:25:15;;;;;;;3.88;1.95;;;;;;;;;;8269085;28;20022;-60
2023/08/14 11:29:15;;;;;;;2.55;1.50;;;;;;;;;;8268843;28;20083;-61
2023/08/14 11:33:20;;;;;;;2.25;1.67;;;;;;;;;;8268868;28;20044;-61
2023/08/14 11:37:20;;;;;;;5.45;2.15;;;;;;;;;;8266390;28;20044;-60
2023/08/14 11:41:20;;;;;;;3.45;1.70;;;;;;;;;;8268612;28;20109;-60
2023/08/14 11:45:21;;;;;;;2.78;1.42;;;;;;;;;;8267164;28;20041;-61
2023/08/14 11:49:21;;;;;;;1.98;1.50;;;;;;;;;;8267761;28;20124;-61
2023/08/14 11:53:21;;;;;;;3.63;1.42;;;;;;;;;;8269072;28;20045;-61
2023/08/14 11:57:31;;;;;;;3.05;1.50;;;;;;;;;;8270510;28;20073;-61
2023/08/14 12:01:32;;;;;;;5.28;1.48;;;;;;;;;;8265323;28;20157;-61
2023/08/14 12:05:32;;;;;;;2.80;1.73;;;;;;;;;;8268212;28;20696;-61
2023/08/14 12:09:34;;;;;;;4.25;1.40;;;;;;;;;;8267854;28;20409;-61
2023/08/14 12:13:34;;;;;;;2.73;1.50;;;;;;;;;;8267908;28;20025;-61
2023/08/14 12:17:34;;;;;;;3.40;1.47;;;;;;;;;;8264459;28;20160;-61
2023/08/14 12:21:35;;;;;;;2.30;1.50;;;;;;;;;;8267030;28;20892;-61
2023/08/14 12:25:35;;;;;;;3.08;1.60;;;;;;;;;;8268154;28;20339;-61
2023/08/14 12:29:35;;;;;;;4.30;1.45;;;;;;;;;;8266268;28;20439;-61
2023/08/14 12:33:36;;;;;;;3.47;1.58;;;;;;;;;;8268449;28;20073;-61
2023/08/14 12:37:36;;;;;;;1.92;1.60;;;;;;;;;;8266201;28;20037;-61
2023/08/14 12:41:36;;;;;;;3.23;1.70;;;;;;;;;;8269245;28;20601;-61
2023/08/14 12:45:37;;;;;;;2.00;1.60;;;;;;;;;;8265312;28;20284;-61
2023/08/14 12:49:37;;;;;;;2.92;1.67;;;;;;;;;;8269470;28;20025;-60
2023/08/14 12:53:38;;;;;;;2.90;1.58;;;;;;;;;;8264561;28;20164;-61
2023/08/14 12:57:38;;;;;;;2.03;1.60;;;;;;;;;;8265087;28;20061;-61
2023/08/14 13:01:38;;;;;;;4.07;1.60;;;;;;;;;;8265470;28;20046;-61
2023/08/14 13:05:39;;;;;;;4.43;1.60;;;;;;;;;;8265021;28;20041;-60
2023/08/14 13:09:39;;;;;;;2.42;1.60;;;;;;;;;;8267140;28;20038;-61
2023/08/14 13:13:39;;;;;;;1.80;1.50;;;;;;;;;;8265600;28;20018;-61
2023/08/14 13:17:39;;;;;;;4.15;1.85;;;;;;;;;;8264205;28;20159;-60
2023/08/14 13:21:39;;;;;;;2.83;1.70;;;;;;;;;;8271318;28;20030;-60
2023/08/14 13:25:39;;;;;;;2.60;1.65;;;;;;;;;;8267918;28;20060;-60
2023/08/14 13:29:40;;;;;;;3.45;1.85;;;;;;;;;;8264203;28;20026;-60
2023/08/14 13:33:40;;;;;;;2.40;2.07;;;;;;;;;;8265578;28;20044;-61
2023/08/14 13:37:40;;;;;;;6.67;2.23;;;;;;;;;;8262314;28;20038;-61
2023/08/14 13:41:40;;;;;;;3.33;2.08;;;;;;;;;;8275048;28;20041;-61
2023/08/14 13:45:40;;;;;;;3.40;1.90;;;;;;;;;;8272691;28;20049;-61
2023/08/14 13:49:41;;;;;;;3.15;1.92;;;;;;;;;;8271965;28;20055;-61
2023/08/14 13:53:41;;;;;;;3.03;1.80;;;;;;;;;;8272977;28;20873;-60
2023/08/14 13:57:41;;;;;;;2.83;2.00;;;;;;;;;;8272238;28;20187;-60
2023/08/14 14:01:41;;;;;;;4.18;1.90;;;;;;;;;;8273612;28;20162;-61
2023/08/14 14:05:41;;;;;;;2.95;1.70;;;;;;;;;;8272590;28;20764;-61
2023/08/14 14:09:42;;;;;;;2.35;1.92;;;;;;;;;;8273427;28;20611;-61
2023/08/14 14:13:42;;;;;;;8.07;2.05;;;;;;;;;;8274306;28;20029;-61
2023/08/14 14:17:42;;;;;;;3.72;2.10;;;;;;;;;;8270269;28;20366;-61
2023/08/14 14:21:42;;;;;;;3.13;1.83;;;;;;;;;;8272246;28;20057;-61
2023/08/14 14:25:42;;;;;;;2.70;1.90;;;;;;;;;;8271956;28;20048;-61
2023/08/14 14:29:43;;;;;;;3.57;1.90;;;;;;;;;;8270847;28;20025;-61
2023/08/14 14:33:43;;;;;;;6.18;1.98;;;;;;;;;;8270129;28;20762;-61
2023/08/14 14:37:43;;;;;;;2.42;1.83;;;;;;;;;;8268743;28;20539;-61
2023/08/14 14:41:44;;;;;;;4.18;2.28;;;;;;;;;;8273812;28;20045;-61
2023/08/14 14:45:44;;;;;;;3.72;2.25;;;;;;;;;;8270861;28;20045;-61
2023/08/14 14:49:44;;;;;;;3.55;2.00;;;;;;;;;;8268777;28;20026;-61
2023/08/14 14:53:45;;;;;;;3.47;2.00;;;;;;;;;;8269725;28;20068;-61
2023/08/14 14:57:45;;;;;;;2.67;1.90;;;;;;;;;;8270329;28;20021;-61
2023/08/14 15:01:45;;;;;;;3.35;2.03;;;;;;;;;;8269998;28;20710;-62
2023/08/14 15:05:49;;;;;;;5.20;2.10;;;;;;;;;;8269263;28;20032;-61
2023/08/14 15:09:49;;;;;;;3.10;1.90;;;;;;;;;;8269606;28;20127;-61
2023/08/14 15:13:50;;;;;;;3.50;1.90;;;;;;;;;;8273340;28;20155;-61
2023/08/14 15:17:50;;;;;;;2.38;2.00;;;;;;;;;;8268930;28;20037;-61
2023/08/14 15:21:50;;;;;;;3.50;2.00;;;;;;;;;;8270802;28;20065;-61
2023/08/14 15:25:50;;;;;;;5.07;2.10;;;;;;;;;;8267269;28;20034;-61
2023/08/14 15:29:50;;;;;;;4.78;2.20;;;;;;;;;;8269179;28;20998;-61
2023/08/14 15:33:51;;;;;;;5.20;2.20;;;;;;;;;;8269847;28;20792;-61
2023/08/14 15:37:51;;;;;;;3.90;2.25;;;;;;;;;;8269373;28;20022;-61
2023/08/14 15:41:51;;;;;;;3.83;2.10;;;;;;;;;;8263753;28;20044;-61
2023/08/14 15:45:59;;;;;;;3.15;2.10;;;;;;;;;;8269736;28;20045;-61
2023/08/14 15:49:59;;;;;;;4.20;1.90;;;;;;;;;;8269349;28;20021;-61
2023/08/14 15:53:59;;;;;;;3.00;2.13;;;;;;;;;;8269627;28;20026;-61
2023/08/14 15:57:59;;;;;;;3.15;2.30;;;;;;;;;;8267943;28;20060;-61
2023/08/14 16:02:00;;;;;;;7.90;2.30;;;;;;;;;;8268743;28;20037;-61
2023/08/14 16:06:00;;;;;;;7.70;3.08;;;;;;;;;;8265794;28;20028;-61
2023/08/14 16:10:00;;;;;;;4.00;2.40;;;;;;;;;;8268027;28;20140;-61
2023/08/14 16:14:00;;;;;;;4.07;2.30;;;;;;;;;;8269053;28;20021;-61
2023/08/14 16:18:01;;;;;;;3.42;2.15;;;;;;;;;;8265796;28;20040;-61
2023/08/14 16:22:01;;;;;;;4.40;2.20;;;;;;;;;;8267930;28;20041;-61
2023/08/14 16:26:01;;;;;;;6.07;2.30;;;;;;;;;;8269238;28;20117;-61
2023/08/14 16:30:01;;;;;;;4.47;2.35;;;;;;;;;;8268735;28;20091;-61
2023/08/14 16:34:01;;;;;;;3.03;2.37;;;;;;;;;;8267886;28;20025;-61
2023/08/14 16:38:02;;;;;;;2.80;2.10;;;;;;;;;;8266275;28;20112;-61
2023/08/14 16:42:02;;;;;;;3.58;2.42;;;;;;;;;;8268048;28;20807;-61
2023/08/14 16:46:02;;;;;;;4.73;2.53;;;;;;;;;;8270476;28;20137;-61
2023/08/14 16:50:03;;;;;;;3.22;2.40;;;;;;;;;;8267566;28;20287;-61
2023/08/14 16:54:03;;;;;;;4.25;2.30;;;;;;;;;;8264247;28;20895;-61
2023/08/14 16:58:03;;;;;;;5.33;2.47;;;;;;;;;;8266986;28;20080;-61
2023/08/14 17:02:04;;;;;;;6.00;2.55;;;;;;;;;;8265846;28;20068;-61
2023/08/14 17:06:04;;;;;;;3.75;2.15;;;;;;;;;;8268550;28;20060;-61
2023/08/14 17:10:04;;;;;;;7.23;2.50;;;;;;;;;;8263751;28;20018;-61
2023/08/14 17:14:05;;;;;;;5.57;2.20;;;;;;;;;;8265309;28;20364;-61
2023/08/14 17:18:05;;;;;;;4.10;2.30;;;;;;;;;;8272371;28;20033;-61
2023/08/14 17:22:05;;;;;;;3.65;2.00;;;;;;;;;;8275119;28;20373;-61
2023/08/14 17:26:05;;;;;;;2.57;2.13;;;;;;;;;;8273223;28;20187;-61
2023/08/14 17:30:06;;;;;;;4.82;2.10;;;;;;;;;;8270186;28;20036;-61
2023/08/14 17:34:06;;;;;;;3.60;2.03;;;;;;;;;;8274705;28;20024;-61
2023/08/14 17:38:06;;;;;;;2.85;2.22;;;;;;;;;;8273214;28;20112;-61
2023/08/14 17:42:06;;;;;;;3.00;2.30;;;;;;;;;;8270846;28;20054;-61
2023/08/14 17:46:06;;;;;;;5.22;2.40;;;;;;;;;;8271974;28;20949;-61
2023/08/14 17:50:08;;;;;;;5.72;2.20;;;;;;;;;;8272004;28;20768;-61
2023/08/14 17:54:08;;;;;;;4.60;2.40;;;;;;;;;;8268798;28;20053;-61
2023/08/14 17:58:08;;;;;;;4.70;2.15;;;;;;;;;;8271941;28;20060;-60
2023/08/14 18:02:08;;;;;;;4.20;2.22;;;;;;;;;;8270721;28;20140;-61
2023/08/14 18:06:08;;;;;;;3.20;2.40;;;;;;;;;;8271754;28;20082;-61
2023/08/14 18:10:09;;;;;;;2.95;2.17;;;;;;;;;;8273035;28;20051;-61
2023/08/14 18:14:09;;;;;;;2.40;2.17;;;;;;;;;;8271914;28;20018;-60
2023/08/14 18:18:09;;;;;;;3.35;2.10;;;;;;;;;;8271794;28;20026;-61
2023/08/14 18:22:10;;;;;;;2.27;1.80;;;;;;;;;;8272760;28;20080;-61
2023/08/14 18:26:10;;;;;;;3.08;1.90;;;;;;;;;;8268816;28;20144;-60
2023/08/14 18:30:10;;;;;;;3.90;1.90;;;;;;;;;;8271330;28;20033;-61
2023/08/14 18:34:10;;;;;;;4.77;2.00;;;;;;;;;;8271352;28;20477;-61
2023/08/14 18:38:10;;;;;;;4.43;2.00;;;;;;;;;;8268398;28;20303;-61
2023/08/14 18:42:11;;;;;;;5.30;2.30;;;;;;;;;;8271021;28;20026;-60
2023/08/14 18:46:11;;;;;;;2.60;2.20;;;;;;;;;;8270784;28;20049;-61
2023/08/14 18:50:12;;;;;;;3.55;2.30;;;;;;;;;;8269937;28;20079;-60
2023/08/14 18:54:12;;;;;;;3.88;2.30;;;;;;;;;;8272472;28;20113;-60
2023/08/14 18:58:13;;;;;;;7.72;2.78;;;;;;;;;;8270110;28;20029;-60
2023/08/14 19:02:13;;;;;;;7.03;2.60;;;;;;;;;;8268385;28;20905;-60
2023/08/14 19:06:13;;;;;;;5.13;2.27;;;;;;;;;;8269764;28;20037;-61
2023/08/14 19:10:13;;;;;;;3.25;2.28;;;;;;;;;;8265647;28;20038;-60
2023/08/14 19:14:14;;;;;;;5.30;2.50;;;;;;;;;;8271409;28;20030;-60
2023/08/14 19:18:14;;;;;;;4.32;2.42;;;;;;;;;;8266538;28;20919;-60
2023/08/14 19:22:16;;;;;;;3.45;2.33;;;;;;;;;;8271513;28;20866;-60
2023/08/14 19:26:16;;;;;;;8.00;2.72;;;;;;;;;;8271370;28;20026;-60
2023/08/14 19:30:17;;;;;;;4.25;2.55;;;;;;;;;;8267740;28;20036;-61
2023/08/14 19:34:17;;;;;;;4.93;2.17;;;;;;;;;;8269051;28;20025;-60
2023/08/14 19:38:17;;;;;;;5.27;2.80;;;;;;;;;;8265681;28;20109;-60
2023/08/14 19:42:17;;;;;;;5.20;2.30;;;;;;;;;;8268512;28;20065;-60
2023/08/14 19:46:17;;;;;;;4.15;2.30;;;;;;;;;;8269002;28;20057;-60
2023/08/14 19:50:18;;;;;;;5.15;2.80;;;;;;;;;;8269317;28;20038;-60
2023/08/14 19:54:18;;;;;;;5.55;2.80;;;;;;;;;;8265186;28;20062;-60
2023/08/14 19:58:18;;;;;;;8.73;3.20;;;;;;;;;;8269026;28;20648;-61
2023/08/14 20:02:18;;;;;;;4.57;2.85;;;;;;;;;;8266526;28;20037;-60
2023/08/14 20:06:18;;;;;;;4.63;2.43;;;;;;;;;;8269629;28;20040;-60
2023/08/14 20:10:19;;;;;;;3.03;2.60;;;;;;;;;;8262609;28;20057;-60
2023/08/14 20:14:19;;;;;;;5.03;2.90;;;;;;;;;;8267588;28;20045;-61
2023/08/14 20:18:20;;;;;;;9.95;2.83;;;;;;;;;;8268342;28;20034;-60
2023/08/14 20:22:23;;;;;;;6.10;2.85;;;;;;;;;;8267998;28;20037;-60
2023/08/14 20:26:23;;;;;;;3.72;2.60;;;;;;;;;;8266936;28;20462;-60
2023/08/14 20:30:23;;;;;;;6.82;2.72;;;;;;;;;;8265810;28;20041;-60
2023/08/14 20:34:23;;;;;;;4.13;2.60;;;;;;;;;;8268648;28;20486;-61
2023/08/14 20:38:23;;;;;;;4.43;2.90;;;;;;;;;;8265644;28;20032;-60
2023/08/14 20:42:24;;;;;;;5.75;2.90;;;;;;;;;;8268945;28;20025;-60
2023/08/14 20:46:24;;;;;;;3.90;2.55;;;;;;;;;;8267186;28;20032;-60
2023/08/14 20:50:24;;;;;;;9.52;2.95;;;;;;;;;;8268175;28;20052;-60
2023/08/14 20:54:25;;;;;;;4.97;2.75;;;;;;;;;;8266981;28;20108;-60
2023/08/14 20:58:26;;;;;;;3.28;2.60;;;;;;;;;;8265169;28;20072;-60
2023/08/14 21:02:26;;;;;;;5.22;2.70;;;;;;;;;;8267958;28;20076;-60
2023/08/14 21:06:26;;;;;;;5.15;2.70;;;;;;;;;;8264178;28;20175;-60
2023/08/14 21:10:26;;;;;;;5.50;2.92;;;;;;;;;;8266286;28;21284;-60
2023/08/14 21:14:26;;;;;;;5.00;2.90;;;;;;;;;;8271217;28;20022;-60
2023/08/14 21:18:27;;;;;;;2.92;2.30;;;;;;;;;;8262028;28;20033;-60
2023/08/14 21:22:27;;;;;;;4.15;2.42;;;;;;;;;;8261817;28;20087;-60
2023/08/14 21:26:28;;;;;;;3.88;2.80;;;;;;;;;;8257227;28;20062;-60
2023/08/14 21:30:28;;;;;;;5.00;2.70;;;;;;;;;;8264447;28;20048;-61
2023/08/14 21:34:29;;;;;;;5.55;2.78;;;;;;;;;;8264879;28;20116;-59
2023/08/14 21:38:29;;;;;;;4.28;2.42;;;;;;;;;;8260999;28;20022;-60
2023/08/14 21:42:30;;;;;;;6.38;2.70;;;;;;;;;;8260000;28;20018;-60
2023/08/14 21:46:30;;;;;;;3.35;2.63;;;;;;;;;;8262832;28;20081;-60
2023/08/14 21:50:33;;;;;;;4.22;2.47;;;;;;;;;;8261791;28;20033;-61
2023/08/14 21:54:34;;;;;;;8.43;2.95;;;;;;;;;;8261725;28;20030;-60
2023/08/14 21:58:34;;;;;;;5.80;2.70;;;;;;;;;;8261632;28;20128;-59
2023/08/14 22:02:34;;;;;;;4.87;2.80;;;;;;;;;;8264607;28;20315;-60
2023/08/14 22:06:35;;;;;;;3.20;2.53;;;;;;;;;;8269679;28;20107;-60
2023/08/14 22:10:35;;;;;;;5.07;2.38;;;;;;;;;;8269774;28;20815;-60
2023/08/14 22:14:35;;;;;;;4.80;2.37;;;;;;;;;;8269186;28;20029;-60
2023/08/14 22:18:35;;;;;;;4.03;2.50;;;;;;;;;;8266854;28;21076;-59
2023/08/14 22:22:36;;;;;;;3.95;2.50;;;;;;;;;;8269623;28;20021;-60
2023/08/14 22:26:36;;;;;;;5.20;2.70;;;;;;;;;;8269171;28;20083;-60
2023/08/14 22:30:36;;;;;;;3.90;2.40;;;;;;;;;;8266141;28;20045;-60
2023/08/14 22:34:37;;;;;;;2.88;2.20;;;;;;;;;;8267747;28;20017;-60
2023/08/14 22:38:37;;;;;;;4.17;2.70;;;;;;;;;;8266912;28;20033;-61
2023/08/14 22:42:37;;;;;;;3.22;2.33;;;;;;;;;;8266189;28;20349;-60
2023/08/14 22:46:37;;;;;;;3.60;2.60;;;;;;;;;;8270192;28;20120;-60
2023/08/14 22:50:37;;;;;;;3.08;2.63;;;;;;;;;;8266343;28;20034;-60
2023/08/14 22:54:38;;;;;;;4.53;2.50;;;;;;;;;;8268154;28;20022;-60
2023/08/14 22:58:38;;;;;;;4.18;2.70;;;;;;;;;;8268813;28;20037;-60
2023/08/14 23:02:38;;;;;;;3.43;2.80;;;;;;;;;;8265559;28;20045;-60
2023/08/14 23:06:39;;;;;;;4.90;2.90;;;;;;;;;;8265145;28;20488;-60
2023/08/14 23:10:39;;;;;;;4.13;2.87;;;;;;;;;;8266446;28;20033;-60
2023/08/14 23:14:39;;;;;;;2.70;2.50;;;;;;;;;;8262803;28;20276;-60
2023/08/14 23:18:39;;;;;;;4.47;3.00;;;;;;;;;;8261188;28;20608;-60
2023/08/14 23:22:40;;;;;;;4.80;3.13;;;;;;;;;;8262247;28;20033;-60
2023/08/14 23:26:40;;;;;;;4.28;2.88;;;;;;;;;;8265334;28;20037;-60
2023/08/14 23:30:40;;;;;;;5.28;2.95;;;;;;;;;;8262371;28;20139;-61
2023/08/14 23:34:40;;;;;;;3.08;2.40;;;;;;;;;;8265414;28;20030;-60
2023/08/14 23:38:40;;;;;;;3.13;2.20;;;;;;;;;;8263451;28;20049;-60
2023/08/14 23:42:41;;;;;;;6.47;2.87;;;;;;;;;;8266595;28;20033;-60
2023/08/14 23:46:41;;;;;;;3.33;2.47;;;;;;;;;;8266947;28;20049;-60
2023/08/14 23:50:41;;;;;;;5.87;2.67;;;;;;;;;;8264889;28;20041;-60
2023/08/14 23:54:41;;;;;;;3.40;2.80;;;;;;;;;;8265407;28;20113;-60
2023/08/14 23:58:42;;;;;;;3.80;2.40;;;;;;;;;;8266029;28;20136;-61
